createdAt,value
2019-01-05T00:00:03.128Z,4.50
2019-01-05T00:01:29.811Z,7.00
2019-01-05T00:02:51.556Z,4.90
2019-01-05T00:04:15.688Z,4.40
2019-01-05T00:05:39.314Z,6.23
2019-01-05T00:07:01.420Z,6.03
2019-01-05T00:08:23.756Z,6.03
2019-01-05T00:09:45.636Z,4.43
2019-01-05T00:11:07.588Z,5.63
2019-01-05T00:12:29.639Z,4.97
2019-01-05T00:13:51.303Z,5.07
2019-01-05T00:15:20.689Z,5.37
2019-01-05T00:16:40.996Z,8.67
2019-01-05T00:18:19.734Z,5.40
2019-01-05T00:19:43.229Z,4.90
2019-01-05T00:21:23.129Z,4.93
2019-01-05T00:22:58.353Z,6.20
2019-01-05T00:24:39.889Z,4.10
2019-01-05T00:26:01.701Z,6.63
2019-01-05T00:27:23.838Z,7.03
2019-01-05T00:28:57.261Z,5.53
2019-01-05T00:30:20.877Z,5.33
2019-01-05T00:31:43.047Z,4.50
2019-01-05T00:33:06.438Z,4.50
2019-01-05T00:34:43.514Z,5.60
2019-01-05T00:36:28.789Z,3.90
2019-01-05T00:37:49.753Z,6.40
2019-01-05T00:39:14.810Z,5.10
2019-01-05T00:40:38.230Z,4.90
2019-01-05T00:42:10.791Z,4.53
2019-01-05T00:43:32.745Z,3.23
2019-01-05T00:45:05.133Z,3.53
2019-01-05T00:46:31.510Z,5.13
2019-01-05T00:48:10.737Z,2.83
2019-01-05T00:49:50.772Z,4.13
2019-01-05T00:51:25.745Z,3.90
2019-01-05T00:52:51.943Z,6.50
2019-01-05T00:54:14.056Z,2.53
2019-01-05T00:55:44.109Z,2.37
2019-01-05T00:57:26.643Z,5.20
2019-01-05T00:58:50.373Z,3.53
2019-01-05T01:00:23.152Z,4.27
2019-01-05T01:01:45.307Z,2.80
2019-01-05T01:03:07.651Z,4.80
2019-01-05T01:04:40.006Z,4.30
2019-01-05T01:06:03.451Z,2.07
2019-01-05T01:07:30.013Z,5.43
2019-01-05T01:08:53.415Z,4.13
2019-01-05T01:10:27.283Z,3.80
2019-01-05T01:11:53.418Z,2.17
2019-01-05T01:13:22.610Z,3.10
2019-01-05T01:14:54.994Z,4.00
2019-01-05T01:16:17.231Z,2.50
2019-01-05T01:17:39.877Z,4.97
2019-01-05T01:19:21.815Z,2.40
2019-01-05T01:20:54.671Z,2.90
2019-01-05T01:22:15.999Z,3.03
2019-01-05T01:23:51.512Z,2.87
2019-01-05T01:25:13.162Z,2.87
2019-01-05T01:26:45.759Z,3.83
2019-01-05T01:28:09.487Z,5.10
2019-01-05T01:29:42.132Z,2.20
2019-01-05T01:31:05.277Z,2.93
2019-01-05T01:32:40.639Z,2.70
2019-01-05T01:33:57.441Z,3.83
2019-01-05T01:35:32.917Z,2.93
2019-01-05T01:36:47.047Z,2.97
2019-01-05T01:38:51.037Z,3.63
2019-01-05T01:40:24.230Z,3.47
2019-01-05T01:42:06.734Z,2.33
2019-01-05T01:43:42.481Z,5.33
2019-01-05T01:45:05.769Z,3.80
2019-01-05T01:46:25.486Z,2.53
2019-01-05T01:47:42.174Z,3.53
2019-01-05T01:49:08.843Z,2.43
2019-01-05T01:50:38.492Z,2.00
2019-01-05T01:52:01.153Z,2.47
2019-01-05T01:53:25.777Z,2.07
2019-01-05T01:54:47.956Z,5.00
2019-01-05T01:56:15.811Z,5.10
2019-01-05T01:57:39.588Z,3.17
2019-01-05T01:59:03.228Z,2.73
2019-01-05T02:00:43.746Z,2.97
2019-01-05T02:02:10.575Z,3.70
2019-01-05T02:03:32.696Z,3.33
2019-01-05T02:04:56.296Z,1.70
2019-01-05T02:06:30.491Z,3.07
2019-01-05T02:07:56.519Z,2.60
2019-01-05T02:09:22.046Z,2.23
2019-01-05T02:10:56.624Z,3.47
2019-01-05T02:12:22.950Z,3.17
2019-01-05T02:13:55.976Z,1.93
2019-01-05T02:15:20.948Z,3.33
2019-01-05T02:16:50.533Z,3.30
2019-01-05T02:20:33.353Z,1.87
2019-01-05T02:23:02.750Z,2.00
2019-01-05T02:24:49.821Z,3.87
2019-01-05T02:26:29.481Z,2.30
2019-01-05T02:28:26.434Z,1.53
2019-01-05T02:30:16.993Z,2.93
2019-01-05T02:32:17.198Z,1.53
2019-01-05T02:34:52.969Z,1.90
2019-01-05T02:36:56.740Z,5.30
2019-01-05T02:39:10.484Z,2.03
2019-01-05T02:41:19.024Z,2.20
2019-01-05T02:43:18.162Z,2.27
2019-01-05T02:45:38.541Z,2.67
2019-01-05T02:47:47.528Z,3.30
2019-01-05T02:49:51.533Z,2.33
2019-01-05T02:51:54.214Z,2.40
2019-01-05T02:54:02.680Z,1.20
2019-01-05T02:56:16.365Z,1.63
2019-01-05T02:58:24.674Z,3.30
2019-01-05T03:00:47.911Z,2.70
2019-01-05T03:03:05.192Z,2.03
2019-01-05T03:05:00.294Z,1.83
2019-01-05T03:07:15.340Z,2.17
2019-01-05T03:08:54.506Z,1.37
2019-01-05T03:11:00.502Z,2.93
2019-01-05T03:12:59.504Z,1.97
2019-01-05T03:15:04.355Z,2.97
2019-01-05T03:17:08.911Z,1.57
2019-01-05T03:19:31.645Z,1.97
2019-01-05T03:21:20.251Z,1.47
2019-01-05T03:23:41.373Z,3.73
2019-01-05T03:25:56.205Z,3.17
2019-01-05T03:28:05.362Z,2.20
2019-01-05T03:30:22.105Z,1.67
2019-01-05T03:33:08.371Z,1.90
2019-01-05T03:35:41.913Z,1.47
2019-01-05T03:37:46.194Z,1.40
2019-01-05T03:39:50.710Z,2.57
2019-01-05T03:41:49.190Z,2.23
2019-01-05T03:43:43.912Z,1.23
2019-01-05T03:45:52.119Z,2.70
2019-01-05T03:47:54.822Z,1.50
2019-01-05T03:49:55.009Z,2.53
2019-01-05T03:51:58.596Z,1.60
2019-01-05T03:54:11.658Z,1.27
2019-01-05T03:55:58.784Z,1.70
2019-01-05T03:57:47.618Z,1.67
2019-01-05T03:59:52.735Z,2.50
2019-01-05T04:01:53.760Z,1.77
2019-01-05T04:04:05.956Z,2.33
2019-01-05T04:06:05.214Z,1.87
2019-01-05T04:08:17.052Z,3.00
2019-01-05T04:10:31.300Z,2.90
2019-01-05T04:12:38.534Z,3.03
2019-01-05T04:14:49.957Z,2.80
2019-01-05T04:16:48.597Z,2.10
2019-01-05T04:18:45.575Z,2.17
2019-01-05T04:20:49.774Z,1.70
2019-01-05T04:23:11.825Z,4.43
2019-01-05T04:25:06.128Z,1.70
2019-01-05T04:27:19.064Z,1.20
2019-01-05T04:29:36.321Z,1.30
2019-01-05T04:31:50.969Z,1.80
2019-01-05T04:33:44.583Z,1.70
2019-01-05T04:35:45.859Z,1.50
2019-01-05T04:37:51.013Z,1.17
2019-01-05T04:40:04.192Z,1.63
2019-01-05T04:42:04.908Z,2.77
2019-01-05T04:44:09.197Z,1.30
2019-01-05T04:46:14.562Z,1.10
2019-01-05T04:48:08.335Z,2.47
2019-01-05T04:50:19.839Z,3.53
2019-01-05T04:51:59.420Z,2.67
2019-01-05T04:54:12.874Z,2.80
2019-01-05T04:56:01.886Z,3.37
2019-01-05T04:58:05.359Z,2.10
2019-01-05T05:00:18.851Z,1.57
2019-01-05T05:02:18.725Z,1.53
2019-01-05T05:04:36.436Z,1.30
2019-01-05T05:06:45.540Z,2.37
2019-01-05T05:09:06.348Z,1.87
2019-01-05T05:11:18.066Z,1.73
2019-01-05T05:13:21.322Z,2.50
2019-01-05T05:15:31.305Z,1.13
2019-01-05T05:17:27.874Z,3.63
2019-01-05T05:19:28.120Z,2.00
2019-01-05T05:21:33.796Z,2.13
2019-01-05T05:23:43.999Z,1.30
2019-01-05T05:25:53.569Z,2.73
2019-01-05T05:27:57.269Z,1.43
2019-01-05T05:30:22.948Z,2.13
2019-01-05T05:32:25.523Z,4.90
2019-01-05T05:34:24.133Z,1.97
2019-01-05T05:36:24.755Z,2.03
2019-01-05T05:38:32.368Z,1.97
2019-01-05T05:40:36.966Z,3.20
2019-01-05T05:42:49.344Z,2.97
2019-01-05T05:44:44.802Z,2.67
2019-01-05T05:46:59.529Z,1.57
2019-01-05T05:49:00.397Z,2.37
2019-01-05T05:51:08.009Z,1.53
2019-01-05T05:53:33.226Z,0.80
2019-01-05T05:56:03.718Z,2.90
2019-01-05T05:57:57.180Z,1.60
2019-01-05T06:00:03.277Z,2.23
2019-01-05T06:02:22.814Z,2.00
2019-01-05T06:04:13.304Z,1.97
2019-01-05T06:06:37.180Z,2.10
2019-01-05T06:08:59.956Z,2.77
2019-01-05T06:11:04.220Z,1.27
2019-01-05T06:13:22.292Z,0.93
2019-01-05T06:15:31.997Z,1.93
2019-01-05T06:17:42.508Z,2.10
2019-01-05T06:19:46.804Z,4.40
2019-01-05T06:21:45.153Z,1.57
2019-01-05T06:23:46.728Z,1.93
2019-01-05T06:25:53.942Z,0.60
2019-01-05T06:27:54.588Z,1.53
2019-01-05T06:29:25.114Z,1.53
2019-01-05T06:31:42.535Z,0.60
2019-01-05T06:33:31.701Z,0.93
2019-01-05T06:35:28.238Z,4.23
2019-01-05T06:37:41.431Z,1.27
2019-01-05T06:40:11.433Z,2.80
2019-01-05T06:42:33.133Z,2.07
2019-01-05T06:44:28.005Z,1.43
2019-01-05T06:46:47.207Z,1.77
2019-01-05T06:48:55.666Z,2.10
2019-01-05T06:50:51.152Z,1.97
2019-01-05T06:53:26.756Z,1.10
2019-01-05T06:55:35.751Z,2.00
2019-01-05T06:57:49.516Z,0.90
2019-01-05T07:00:00.022Z,1.03
2019-01-05T07:02:00.036Z,2.10
2019-01-05T07:04:11.619Z,1.77
2019-01-05T07:06:25.436Z,0.63
2019-01-05T07:08:43.217Z,1.47
2019-01-05T07:10:46.362Z,3.33
2019-01-05T07:13:17.828Z,1.27
2019-01-05T07:15:35.883Z,1.70
2019-01-05T07:17:59.565Z,3.93
2019-01-05T07:20:09.390Z,2.43
2019-01-05T07:22:23.560Z,0.77
2019-01-05T07:24:29.360Z,1.10
2019-01-05T07:26:26.846Z,2.97
2019-01-05T07:28:40.662Z,1.50
2019-01-05T07:30:52.516Z,1.37
2019-01-05T07:33:23.327Z,2.60
2019-01-05T07:35:27.233Z,2.30
2019-01-05T07:37:34.231Z,2.20
2019-01-05T07:39:33.452Z,1.43
2019-01-05T07:41:38.625Z,2.10
2019-01-05T07:43:36.491Z,1.20
2019-01-05T07:45:32.933Z,1.90
2019-01-05T07:47:51.456Z,1.53
2019-01-05T07:49:53.083Z,3.00
2019-01-05T07:52:09.675Z,2.40
2019-01-05T07:54:13.503Z,2.07
2019-01-05T07:56:37.345Z,2.07
2019-01-05T07:58:24.621Z,1.60
2019-01-05T08:00:38.338Z,2.67
2019-01-05T08:02:52.758Z,2.13
2019-01-05T08:04:50.221Z,1.47
2019-01-05T08:06:51.713Z,3.47
2019-01-05T08:08:51.525Z,2.57
2019-01-05T08:10:42.689Z,2.77
2019-01-05T08:12:40.267Z,5.10
2019-01-05T08:14:58.195Z,4.37
2019-01-05T08:16:55.479Z,2.97
2019-01-05T08:18:59.931Z,1.90
2019-01-05T08:21:04.662Z,1.70
2019-01-05T08:23:07.194Z,3.03
2019-01-05T08:25:02.589Z,2.23
2019-01-05T08:27:23.628Z,4.83
2019-01-05T08:29:24.073Z,2.23
2019-01-05T08:31:26.222Z,2.93
2019-01-05T08:33:27.900Z,5.53
2019-01-05T08:35:27.172Z,2.57
2019-01-05T08:38:00.465Z,3.17
2019-01-05T08:40:03.344Z,4.30
2019-01-05T08:42:01.232Z,2.83
2019-01-05T08:44:05.751Z,2.80
2019-01-05T08:46:23.337Z,2.60
2019-01-05T08:48:22.984Z,2.73
2019-01-05T08:50:48.501Z,4.03
2019-01-05T08:52:43.652Z,4.30
2019-01-05T08:55:12.378Z,2.30
2019-01-05T08:57:22.429Z,3.03
2019-01-05T08:59:20.725Z,3.00
2019-01-05T09:01:08.277Z,2.97
2019-01-05T09:03:18.218Z,2.60
2019-01-05T09:05:15.624Z,4.27
2019-01-05T09:07:08.929Z,3.23
2019-01-05T09:09:34.362Z,5.70
2019-01-05T09:11:21.674Z,6.13
2019-01-05T09:13:40.355Z,6.03
2019-01-05T09:15:37.795Z,8.77
2019-01-05T09:17:40.842Z,8.67
2019-01-05T09:19:52.138Z,3.33
2019-01-05T09:21:53.029Z,3.67
2019-01-05T09:23:46.617Z,3.10
2019-01-05T09:25:55.795Z,6.50
2019-01-05T09:28:15.894Z,8.17
2019-01-05T09:30:09.851Z,9.43
2019-01-05T09:32:19.421Z,6.23
2019-01-05T09:34:43.440Z,5.53
2019-01-05T09:36:48.823Z,7.27
2019-01-05T09:38:54.322Z,10.47
2019-01-05T09:40:57.435Z,6.73
2019-01-05T09:42:59.075Z,5.50
2019-01-05T09:45:29.650Z,4.57
2019-01-05T09:47:41.627Z,5.30
2019-01-05T09:49:51.811Z,7.93
2019-01-05T09:52:03.856Z,6.97
2019-01-05T09:54:08.736Z,4.50
2019-01-05T09:56:05.386Z,7.43
2019-01-05T09:58:30.268Z,4.93
2019-01-05T10:00:40.303Z,5.50
2019-01-05T10:02:46.918Z,4.87
2019-01-05T10:05:01.654Z,7.73
2019-01-05T10:07:11.978Z,2.83
2019-01-05T10:10:03.952Z,4.23
2019-01-05T10:12:12.020Z,6.13
2019-01-05T10:14:04.821Z,5.20
2019-01-05T10:16:26.829Z,4.40
2019-01-05T10:18:27.243Z,6.40
2019-01-05T10:20:50.032Z,4.90
2019-01-05T10:23:01.980Z,3.93
2019-01-05T10:24:54.205Z,3.47
2019-01-05T10:27:03.198Z,6.30
2019-01-05T10:29:07.077Z,4.87
2019-01-05T10:31:21.315Z,4.17
2019-01-05T10:33:22.206Z,5.67
2019-01-05T10:35:31.304Z,3.47
2019-01-05T10:37:44.115Z,5.23
2019-01-05T10:39:45.706Z,4.37
2019-01-05T10:41:52.928Z,3.10
2019-01-05T10:44:01.522Z,3.73
2019-01-05T10:46:03.553Z,4.33
2019-01-05T10:47:58.720Z,5.60
2019-01-05T10:50:06.883Z,4.73
2019-01-05T10:52:00.863Z,5.47
2019-01-05T10:53:54.525Z,3.07
2019-01-05T10:55:58.701Z,3.43
2019-01-05T10:58:21.822Z,3.70
2019-01-05T11:00:46.883Z,2.53
2019-01-05T11:02:48.996Z,6.27
2019-01-05T11:04:54.763Z,3.90
2019-01-05T11:07:13.958Z,5.60
2019-01-05T11:09:07.648Z,2.60
2019-01-05T11:11:09.728Z,3.20
2019-01-05T11:13:19.209Z,4.20
2019-01-05T11:15:19.427Z,3.70
2019-01-05T11:17:42.458Z,3.57
2019-01-05T11:19:50.095Z,2.90
2019-01-05T11:21:47.056Z,2.00
2019-01-05T11:23:59.744Z,3.10
2019-01-05T11:26:12.905Z,2.73
2019-01-05T11:28:40.811Z,4.67
2019-01-05T11:31:05.520Z,2.13
2019-01-05T11:33:08.482Z,2.43
2019-01-05T11:35:07.071Z,2.73
2019-01-05T11:37:24.011Z,3.37
2019-01-05T11:39:41.824Z,3.07
2019-01-05T11:41:29.207Z,3.63
2019-01-05T11:43:36.662Z,2.00
2019-01-05T11:46:10.891Z,2.27
2019-01-05T11:48:28.412Z,2.27
2019-01-05T11:50:43.132Z,3.57
2019-01-05T11:52:49.150Z,4.40
2019-01-05T11:54:57.780Z,2.93
2019-01-05T11:56:59.231Z,3.60
2019-01-05T11:58:59.282Z,2.80
2019-01-05T12:01:06.255Z,5.40
2019-01-05T12:03:04.857Z,2.97
2019-01-05T12:05:17.961Z,2.13
2019-01-05T12:07:30.354Z,4.73
2019-01-05T12:09:50.983Z,3.77
2019-01-05T12:11:55.457Z,2.13
2019-01-05T12:14:13.126Z,2.43
2019-01-05T12:16:19.978Z,5.37
2019-01-05T12:18:30.984Z,1.70
2019-01-05T12:20:42.101Z,3.00
2019-01-05T12:22:43.559Z,1.90
2019-01-05T12:25:07.251Z,3.13
2019-01-05T12:27:15.641Z,4.03
2019-01-05T12:29:36.021Z,2.27
2019-01-05T12:31:46.539Z,2.47
2019-01-05T12:34:06.980Z,3.13
2019-01-05T12:36:15.935Z,2.77
2019-01-05T12:38:35.553Z,4.03
2019-01-05T12:40:34.206Z,6.17
2019-01-05T12:42:25.067Z,7.40
2019-01-05T12:44:41.954Z,5.00
2019-01-05T12:46:47.233Z,2.37
2019-01-05T12:49:00.199Z,2.60
2019-01-05T12:51:12.139Z,2.20
2019-01-05T12:53:06.267Z,6.13
2019-01-05T12:55:12.898Z,5.60
2019-01-05T12:57:12.342Z,3.00
2019-01-05T12:59:28.297Z,2.60
2019-01-05T13:01:33.022Z,1.67
2019-01-05T13:03:30.928Z,3.20
2019-01-05T13:05:34.050Z,2.97
2019-01-05T13:07:47.938Z,3.03
2019-01-05T13:09:55.952Z,2.10
2019-01-05T13:12:01.796Z,2.13
2019-01-05T13:14:06.286Z,3.00
2019-01-05T13:16:36.749Z,3.93
2019-01-05T13:18:56.903Z,3.87
2019-01-05T13:21:00.690Z,2.43
2019-01-05T13:23:05.627Z,2.60
2019-01-05T13:25:13.376Z,1.73
2019-01-05T13:27:17.873Z,3.77
2019-01-05T13:29:21.973Z,3.00
2019-01-05T13:31:19.641Z,2.93
2019-01-05T13:33:34.528Z,2.50
2019-01-05T13:35:47.685Z,2.67
2019-01-05T13:37:52.226Z,3.87
2019-01-05T13:40:18.339Z,3.57
2019-01-05T13:42:41.473Z,2.10
2019-01-05T13:45:03.798Z,2.40
2019-01-05T13:47:08.173Z,3.47
2019-01-05T13:49:12.212Z,4.93
2019-01-05T13:51:12.761Z,5.03
2019-01-05T13:53:17.515Z,3.17
2019-01-05T13:54:40.884Z,2.10
2019-01-05T13:56:11.512Z,5.53
2019-01-05T13:57:24.431Z,3.77
2019-01-05T13:58:46.263Z,3.40
2019-01-05T14:00:18.544Z,3.70
2019-01-05T14:01:47.765Z,3.57
2019-01-05T14:03:14.155Z,2.67
2019-01-05T14:04:40.630Z,2.50
2019-01-05T14:06:07.338Z,2.40
2019-01-05T14:07:34.131Z,3.00
2019-01-05T14:08:58.567Z,2.47
2019-01-05T14:10:41.094Z,3.17
2019-01-05T14:12:04.583Z,1.83
2019-01-05T14:13:31.432Z,2.97
2019-01-05T14:15:02.175Z,2.03
2019-01-05T14:16:24.732Z,3.53
2019-01-05T14:18:00.478Z,2.60
2019-01-05T14:19:25.475Z,1.70
2019-01-05T14:20:46.208Z,1.60
2019-01-05T14:22:15.502Z,2.77
2019-01-05T14:23:47.793Z,2.90
2019-01-05T14:25:12.442Z,1.60
2019-01-05T14:26:48.713Z,3.60
2019-01-05T14:28:21.003Z,1.20
2019-01-05T14:29:47.402Z,4.87
2019-01-05T14:31:24.294Z,3.33
2019-01-05T14:32:46.023Z,2.53
2019-01-05T14:34:06.523Z,2.13
2019-01-05T14:35:36.893Z,2.97
2019-01-05T14:37:04.862Z,2.23
2019-01-05T14:38:26.873Z,4.83
2019-01-05T14:39:56.463Z,1.40
2019-01-05T14:41:21.457Z,3.80
2019-01-05T14:42:44.751Z,3.03
2019-01-05T14:44:13.823Z,2.40
2019-01-05T14:45:35.814Z,2.80
2019-01-05T14:46:57.542Z,2.43
2019-01-05T14:48:23.438Z,3.03
2019-01-05T14:49:49.974Z,2.13
2019-01-05T14:51:15.759Z,2.00
2019-01-05T14:54:42.801Z,2.67
2019-01-05T14:56:02.116Z,1.80
2019-01-05T14:57:23.953Z,3.80
2019-01-05T14:58:46.051Z,2.83
2019-01-05T15:00:11.912Z,1.93
2019-01-05T15:01:53.611Z,3.33
2019-01-05T15:03:15.506Z,3.83
2019-01-05T15:04:40.766Z,2.53
2019-01-05T15:06:16.366Z,3.53
2019-01-05T15:07:39.754Z,2.33
2019-01-05T15:09:01.403Z,2.33
2019-01-05T15:10:27.886Z,3.80
2019-01-05T15:11:51.612Z,1.97
2019-01-05T15:13:10.298Z,4.30
2019-01-05T15:14:32.260Z,1.83
2019-01-05T15:15:55.645Z,1.90
2019-01-05T15:17:32.394Z,2.90
2019-01-05T15:18:54.417Z,2.77
2019-01-05T15:20:16.283Z,1.93
2019-01-05T15:21:39.742Z,2.50
2019-01-05T15:23:18.216Z,1.90
2019-01-05T15:24:43.737Z,1.93
2019-01-05T15:26:05.531Z,4.17
2019-01-05T15:27:27.238Z,2.10
2019-01-05T15:28:50.555Z,1.67
2019-01-05T15:30:10.781Z,1.80
2019-01-05T15:31:32.901Z,1.77
2019-01-05T15:32:54.712Z,2.50
2019-01-05T15:34:16.424Z,3.50
2019-01-05T15:35:39.953Z,2.77
2019-01-05T15:37:06.448Z,2.03
2019-01-05T15:38:33.303Z,3.97
2019-01-05T15:40:02.653Z,4.23
2019-01-05T15:41:23.567Z,2.27
2019-01-05T15:42:59.234Z,1.63
2019-01-05T15:44:21.204Z,2.67
2019-01-05T15:45:43.028Z,2.57
2019-01-05T15:47:15.132Z,2.03
2019-01-05T15:48:38.640Z,2.13
2019-01-05T15:50:16.880Z,1.90
2019-01-05T15:51:58.556Z,2.20
2019-01-05T15:53:21.991Z,1.97
2019-01-05T15:54:48.591Z,2.10
2019-01-05T15:56:12.079Z,2.60
2019-01-05T15:57:34.161Z,3.70
2019-01-05T15:58:56.248Z,2.33
2019-01-05T16:00:28.453Z,3.23
2019-01-05T16:01:57.756Z,2.80
2019-01-05T16:03:36.043Z,3.47
2019-01-05T16:05:14.647Z,3.97
2019-01-05T16:06:36.482Z,3.27
2019-01-05T16:08:01.161Z,3.70
2019-01-05T16:09:35.255Z,3.07
2019-01-05T16:10:57.371Z,4.20
2019-01-05T16:12:23.535Z,2.90
2019-01-05T16:13:45.775Z,2.40
2019-01-05T16:15:07.969Z,3.30
2019-01-05T16:16:29.985Z,3.57
2019-01-05T16:17:59.534Z,2.70
2019-01-05T16:19:28.838Z,4.03
2019-01-05T16:20:50.660Z,4.23
2019-01-05T16:22:28.421Z,3.40
2019-01-05T16:23:59.114Z,4.87
2019-01-05T16:25:29.095Z,3.73
2019-01-05T16:26:59.253Z,3.60
2019-01-05T16:28:25.777Z,3.90
2019-01-05T16:29:58.360Z,4.10
2019-01-05T16:31:20.117Z,4.93
2019-01-05T16:32:42.031Z,3.60
2019-01-05T16:34:05.447Z,4.00
2019-01-05T16:35:27.066Z,5.83
2019-01-05T16:36:50.511Z,4.07
2019-01-05T16:38:20.177Z,4.53
2019-01-05T16:39:55.606Z,5.17
2019-01-05T16:41:18.929Z,5.13
2019-01-05T16:42:41.182Z,4.27
2019-01-05T16:44:05.506Z,5.87
2019-01-05T16:45:40.985Z,7.80
2019-01-05T16:47:07.459Z,6.03
2019-01-05T16:48:34.213Z,7.20
2019-01-05T16:49:56.337Z,7.00
2019-01-05T16:51:34.706Z,6.57
2019-01-05T16:53:09.923Z,4.00
2019-01-05T16:54:42.223Z,7.23
2019-01-05T16:56:04.459Z,6.53
2019-01-05T16:57:26.673Z,5.30
2019-01-05T16:59:02.192Z,5.73
2019-01-05T17:00:41.313Z,4.67
2019-01-05T17:02:07.750Z,5.73
2019-01-05T17:03:31.237Z,5.73
2019-01-05T17:05:00.690Z,6.13
2019-01-05T17:06:22.809Z,5.57
2019-01-05T17:08:04.470Z,5.77
2019-01-05T17:09:26.437Z,4.90
2019-01-05T17:10:48.276Z,6.00
2019-01-05T17:12:12.401Z,7.57
2019-01-05T17:13:34.130Z,5.33
2019-01-05T17:14:55.945Z,5.43
2019-01-05T17:16:18.097Z,6.33
2019-01-05T17:17:40.093Z,6.37
2019-01-05T17:19:05.426Z,6.43
2019-01-05T17:20:27.530Z,6.43
2019-01-05T17:21:57.313Z,4.60
2019-01-05T17:23:19.830Z,5.77
2019-01-05T17:24:55.348Z,6.47
2019-01-05T17:26:18.762Z,4.33
2019-01-05T17:27:51.069Z,6.30
2019-01-05T17:29:14.386Z,6.20
2019-01-05T17:30:37.758Z,5.03
2019-01-05T17:32:01.277Z,5.53
2019-01-05T17:33:23.545Z,5.93
2019-01-05T17:34:52.869Z,6.43
2019-01-05T17:36:16.223Z,5.93
2019-01-05T17:37:38.452Z,5.50
2019-01-05T17:38:55.898Z,5.60
2019-01-05T17:40:19.548Z,4.33
2019-01-05T17:41:46.108Z,5.83
2019-01-05T17:43:07.788Z,7.33
2019-01-05T17:44:35.843Z,7.03
2019-01-05T17:45:58.091Z,6.17
2019-01-05T17:47:33.460Z,8.57
2019-01-05T17:48:55.394Z,6.40
2019-01-05T17:50:24.869Z,6.30
2019-01-05T17:51:47.361Z,4.50
2019-01-05T17:53:09.021Z,4.93
2019-01-05T17:54:31.173Z,4.53
2019-01-05T17:55:54.611Z,5.47
2019-01-05T17:57:24.090Z,5.70
2019-01-05T17:58:53.632Z,4.47
2019-01-05T18:00:10.909Z,4.47
2019-01-05T18:01:32.121Z,5.73
2019-01-05T18:02:54.334Z,5.20
2019-01-05T18:04:16.512Z,5.20
2019-01-05T18:05:38.599Z,5.63
2019-01-05T18:07:00.346Z,5.03
2019-01-05T18:08:38.968Z,5.30
2019-01-05T18:10:14.440Z,5.50
2019-01-05T18:11:36.329Z,5.40
2019-01-05T18:13:14.816Z,5.37
2019-01-05T18:14:36.763Z,4.67
2019-01-05T18:16:18.148Z,7.77
2019-01-05T18:17:35.453Z,5.47
2019-01-05T18:19:08.062Z,5.93
2019-01-05T18:20:37.503Z,5.63
2019-01-05T18:22:12.767Z,5.30
2019-01-05T18:23:30.479Z,5.20
2019-01-05T18:24:53.889Z,5.33
2019-01-05T18:26:15.914Z,5.23
2019-01-05T18:27:45.573Z,4.43
2019-01-05T18:29:07.751Z,5.00
2019-01-05T18:30:43.707Z,5.90
2019-01-05T18:32:19.029Z,4.80
2019-01-05T18:33:45.979Z,6.60
2019-01-05T18:35:12.471Z,4.80
2019-01-05T18:36:44.633Z,5.90
2019-01-05T18:38:16.885Z,6.07
2019-01-05T18:39:52.380Z,4.73
2019-01-05T18:41:14.328Z,4.53
2019-01-05T18:42:29.759Z,5.07
2019-01-05T18:43:56.218Z,6.33
2019-01-05T18:45:18.328Z,5.47
2019-01-05T18:46:41.726Z,4.50
2019-01-05T18:48:03.579Z,3.93
2019-01-05T18:49:37.404Z,6.00
2019-01-05T18:51:00.911Z,5.23
2019-01-05T18:52:25.130Z,7.67
2019-01-05T18:53:46.880Z,5.03
2019-01-05T18:55:08.843Z,5.00
2019-01-05T18:56:31.015Z,4.90
2019-01-05T18:57:54.445Z,6.67
2019-01-05T18:59:20.632Z,5.17
2019-01-05T19:00:42.538Z,5.40
2019-01-05T19:02:09.056Z,5.47
2019-01-05T19:03:32.611Z,6.07
2019-01-05T19:05:09.482Z,7.00
2019-01-05T19:06:31.246Z,4.77
2019-01-05T19:07:53.140Z,5.93
2019-01-05T19:09:15.197Z,5.17
2019-01-05T19:10:37.415Z,5.60
2019-01-05T19:12:09.670Z,4.90
2019-01-05T19:13:36.111Z,5.03
2019-01-05T19:14:58.148Z,5.00
2019-01-05T19:16:22.637Z,6.57
2019-01-05T19:17:44.526Z,4.03
2019-01-05T19:19:11.122Z,4.37
2019-01-05T19:20:37.387Z,5.37
2019-01-05T19:22:03.875Z,4.17
2019-01-05T19:23:20.962Z,5.50
2019-01-05T19:25:02.402Z,6.30
2019-01-05T19:26:28.916Z,5.47
2019-01-05T19:27:51.008Z,4.13
2019-01-05T19:29:23.393Z,6.40
2019-01-05T19:30:59.055Z,4.60
2019-01-05T19:32:21.073Z,7.97
2019-01-05T19:33:43.121Z,4.40
2019-01-05T19:35:24.881Z,4.80
2019-01-05T19:36:57.484Z,4.10
2019-01-05T19:38:26.756Z,4.83
2019-01-05T19:40:04.403Z,4.33
2019-01-05T19:41:27.881Z,4.77
2019-01-05T19:42:49.886Z,4.87
2019-01-05T19:44:09.875Z,4.07
2019-01-05T19:45:36.149Z,5.53
2019-01-05T19:46:57.861Z,4.13
2019-01-05T19:48:27.493Z,4.90
2019-01-05T19:49:49.428Z,6.37
2019-01-05T19:51:19.507Z,5.00
2019-01-05T19:52:41.586Z,5.80
2019-01-05T19:54:20.347Z,5.17
2019-01-05T19:55:44.741Z,6.87
2019-01-05T19:57:06.355Z,5.07
2019-01-05T19:58:44.949Z,3.83
2019-01-05T20:00:08.447Z,5.57
2019-01-05T20:01:34.562Z,5.17
2019-01-05T20:02:56.561Z,5.77
2019-01-05T20:04:23.007Z,3.60
2019-01-05T20:06:01.624Z,4.40
2019-01-05T20:07:30.857Z,4.67
2019-01-05T20:09:05.021Z,4.33
2019-01-05T20:10:34.866Z,3.70
2019-01-05T20:11:56.973Z,4.97
2019-01-05T20:13:28.887Z,4.77
2019-01-05T20:14:55.365Z,4.33
2019-01-05T20:16:27.864Z,4.47
2019-01-05T20:17:54.244Z,4.03
2019-01-05T20:19:16.291Z,4.30
2019-01-05T20:20:39.722Z,3.93
2019-01-05T20:22:18.108Z,3.50
2019-01-05T20:23:44.343Z,5.90
2019-01-05T20:25:16.945Z,5.37
2019-01-05T20:26:48.504Z,3.70
2019-01-05T20:28:20.872Z,3.83
2019-01-05T20:29:50.458Z,3.83
2019-01-05T20:31:23.128Z,7.57
2019-01-05T20:32:45.151Z,3.43
2019-01-05T20:34:20.383Z,3.30
2019-01-05T20:35:42.284Z,4.13
2019-01-05T20:37:15.028Z,3.73
2019-01-05T20:38:50.662Z,4.07
2019-01-05T20:40:20.004Z,4.63
2019-01-05T20:41:42.103Z,3.77
2019-01-05T20:43:10.642Z,4.50
2019-01-05T20:44:32.761Z,4.03
2019-01-05T20:45:59.304Z,4.30
2019-01-05T20:47:21.426Z,4.00
2019-01-05T20:48:56.803Z,4.13
2019-01-05T20:50:31.850Z,4.00
2019-01-05T20:52:07.150Z,4.40
2019-01-05T20:53:29.118Z,4.00
2019-01-05T20:54:58.639Z,3.27
2019-01-05T20:56:40.345Z,3.23
2019-01-05T20:58:01.989Z,4.03
2019-01-05T20:59:43.265Z,3.37
2019-01-05T21:01:05.396Z,5.77
2019-01-05T21:02:40.619Z,3.30
2019-01-05T21:03:56.841Z,3.80
2019-01-05T21:05:27.849Z,2.93
2019-01-05T21:06:43.924Z,4.90
2019-01-05T21:08:06.994Z,3.00
2019-01-05T21:09:48.320Z,3.13
2019-01-05T21:11:30.059Z,4.83
2019-01-05T21:12:51.891Z,2.30
2019-01-05T21:14:30.188Z,4.93
2019-01-05T21:15:51.993Z,3.03
2019-01-05T21:17:14.118Z,3.77
2019-01-05T21:18:52.672Z,3.57
2019-01-05T21:20:28.108Z,2.67
2019-01-05T21:21:54.159Z,4.57
2019-01-05T21:23:15.900Z,4.10
2019-01-05T21:24:38.052Z,2.90
2019-01-05T21:26:00.203Z,2.57
2019-01-05T21:27:26.542Z,3.93
2019-01-05T21:28:49.839Z,2.47
2019-01-05T21:30:11.884Z,2.50
2019-01-05T21:31:47.167Z,3.73
2019-01-05T21:33:16.715Z,2.97
2019-01-05T21:34:46.221Z,3.63
2019-01-05T21:36:18.932Z,4.97
2019-01-05T21:37:45.152Z,3.30
2019-01-05T21:39:07.018Z,4.57
2019-01-05T21:40:33.462Z,4.77
2019-01-05T21:41:55.589Z,4.13
2019-01-05T21:43:10.950Z,3.00
2019-01-05T21:44:33.176Z,3.13
2019-01-05T21:45:55.195Z,5.40
2019-01-05T21:47:17.311Z,4.37
2019-01-05T21:48:55.660Z,3.40
2019-01-05T21:50:31.172Z,4.00
2019-01-05T21:51:53.261Z,4.37
2019-01-05T21:53:22.614Z,3.57
2019-01-05T21:54:51.797Z,4.50
2019-01-05T21:56:18.289Z,4.20
2019-01-05T21:57:44.907Z,4.00
2019-01-05T21:59:23.546Z,9.10
2019-01-05T22:00:45.207Z,4.63
2019-01-05T22:01:57.661Z,3.73
2019-01-05T22:03:29.878Z,5.17
2019-01-05T22:04:52.024Z,3.53
2019-01-05T22:06:18.479Z,3.70
2019-01-05T22:07:35.289Z,5.83
2019-01-05T22:08:57.568Z,4.83
2019-01-05T22:10:19.375Z,3.43
2019-01-05T22:11:42.795Z,5.57
2019-01-05T22:13:09.236Z,4.37
2019-01-05T22:14:31.181Z,4.67
2019-01-05T22:16:04.875Z,5.50
2019-01-05T22:17:37.272Z,7.00
2019-01-05T22:19:09.410Z,6.93
2019-01-05T22:20:31.754Z,5.23
2019-01-05T22:21:55.209Z,6.10
2019-01-05T22:23:18.601Z,5.30
2019-01-05T22:24:51.182Z,5.73
2019-01-05T22:26:13.311Z,4.57
2019-01-05T22:27:36.946Z,3.33
2019-01-05T22:29:00.414Z,3.70
2019-01-05T22:30:24.707Z,5.67
2019-01-05T22:32:02.843Z,6.23
2019-01-05T22:33:41.348Z,3.67
2019-01-05T22:35:13.467Z,4.50
2019-01-05T22:36:36.350Z,3.60
2019-01-05T22:37:58.186Z,4.17
2019-01-05T22:39:21.590Z,3.73
2019-01-05T22:40:57.013Z,3.70
2019-01-05T22:42:22.384Z,3.70
2019-01-05T22:43:44.236Z,3.60
2019-01-05T22:45:22.513Z,3.70
2019-01-05T22:46:54.820Z,2.47
2019-01-05T22:48:16.875Z,2.93
2019-01-05T22:49:52.236Z,3.93
2019-01-05T22:51:13.649Z,3.27
2019-01-05T22:52:33.554Z,3.70
2019-01-05T22:54:03.012Z,3.57
2019-01-05T22:55:25.032Z,2.80
2019-01-05T22:57:03.546Z,2.93
2019-01-05T22:58:25.493Z,3.30
2019-01-05T22:59:51.890Z,3.23
2019-01-05T23:01:21.095Z,3.00
2019-01-05T23:02:47.554Z,2.40
2019-01-05T23:04:03.848Z,5.50